Time;durP1;ratioP1;P1;durP2;ratioP2;P2;SDS_P1;SDS_P2;PMS_P1;PMS_P2;Temp;Humidity;BMP_temperature;BMP_pressure;BME280_temperature;BME280_humidity;BME280_pressure;Samples;Min_cycle;Max_cycle;Signal;HPM_P1;HPM_P2
2021/08/04 03:31:53;;;;;;;3.20;2.70;;;;;;;20.89;55.56;98559.56;7668960;23;20260;-80
2021/08/04 03:35:14;;;;;;;4.00;2.40;;;;;;;;;;6891681;28;20216;-79
2021/08/04 03:38:36;;;;;;;2.63;2.37;;;;;;;20.98;54.89;98542.28;6886890;28;20219;-80
2021/08/04 03:41:58;;;;;;;2.80;2.37;;;;;;;21.02;55.82;98567.22;6872719;28;20609;-80
2021/08/04 03:45:19;;;;;;;2.43;2.23;;;;;;;20.99;55.65;98562.31;6917463;23;20238;-82
2021/08/04 03:48:42;;;;;;;3.73;2.53;;;;;;;21.05;55.51;98559.25;6903023;28;20228;-83
2021/08/04 03:52:05;;;;;;;4.33;2.43;;;;;;;20.84;56.20;98565.88;6893267;28;20211;-82
2021/08/04 03:55:27;;;;;;;3.20;2.50;;;;;;;20.76;55.42;98536.25;6883356;28;20238;-82
2021/08/04 03:58:49;;;;;;;4.40;2.50;;;;;;;20.67;56.26;98554.38;6865434;28;20205;-83
2021/08/04 04:02:10;;;;;;;4.30;2.87;;;;;;;21.01;55.33;98560.09;6855200;28;20542;-82
2021/08/04 04:05:33;;;;;;;3.07;2.40;;;;;;;20.83;55.33;98534.09;6875313;28;20707;-84
2021/08/04 04:08:55;;;;;;;5.10;3.17;;;;;;;21.00;56.01;98552.97;6873785;28;20229;-84
2021/08/04 04:12:17;;;;;;;4.60;2.43;;;;;;;20.92;57.00;98556.31;6874509;28;20587;-83
2021/08/04 04:15:53;;;;;;;5.30;4.10;;;;;;;20.84;56.33;98538.47;6874203;28;20222;-81
2021/08/04 04:19:15;;;;;;;6.50;2.63;;;;;;;21.11;55.29;98552.66;6764420;29;20606;-82
2021/08/04 04:22:38;;;;;;;2.90;2.57;;;;;;;20.88;55.59;98525.84;6766133;29;20307;-83
2021/08/04 04:26:01;;;;;;;2.73;2.53;;;;;;;20.86;56.04;98546.41;6764450;29;20317;-82
2021/08/04 04:29:22;;;;;;;3.47;2.60;;;;;;;20.62;56.05;98510.53;6765374;29;20607;-83
2021/08/04 04:32:44;;;;;;;2.70;2.50;;;;;;;20.94;56.12;98571.34;6765220;29;20215;-83
2021/08/04 04:36:06;;;;;;;4.63;2.80;;;;;;;20.52;57.33;98528.91;6765518;29;20251;-82
2021/08/04 04:39:29;;;;;;;3.60;2.70;;;;;;;20.56;56.88;98533.56;6765033;29;20232;-83
2021/08/04 04:42:50;;;;;;;2.90;2.60;;;;;;;20.75;57.17;98564.75;6760506;29;20321;-84
2021/08/04 04:46:12;;;;;;;3.17;2.50;;;;;;;20.76;56.92;98549.97;6764844;29;20262;-84
2021/08/04 04:49:34;;;;;;;5.37;2.63;;;;;;;20.67;57.13;98572.72;6763309;29;20228;-84
2021/08/04 04:52:55;;;;;;;3.47;2.57;;;;;;;20.62;56.78;98548.06;6752851;29;20211;-85
2021/08/04 04:56:18;;;;;;;4.87;2.57;;;;;;;20.65;57.04;98542.88;6826313;28;20225;-84
2021/08/04 04:59:40;;;;;;;5.23;2.60;;;;;;;20.23;56.44;98541.53;6852392;28;20649;-85
2021/08/04 05:03:02;;;;;;;4.53;2.67;;;;;;;20.27;57.95;98559.06;6873221;28;20213;-84
2021/08/04 05:06:23;;;;;;;4.43;2.57;;;;;;;20.54;56.85;98541.25;6850714;28;20218;-81
2021/08/04 05:09:45;;;;;;;7.00;2.60;;;;;;;20.93;55.25;98563.41;6859985;28;20231;-81
2021/08/04 05:13:08;;;;;;;2.57;2.37;;;;;;;20.98;55.02;98566.97;6862140;28;20208;-81
2021/08/04 05:16:30;;;;;;;3.87;2.37;;;;;;;21.12;55.13;98575.44;6873591;28;20273;-82
2021/08/04 05:19:51;;;;;;;2.70;2.50;;;;;;;21.33;54.04;98566.06;6873594;28;20269;-83
2021/08/04 05:23:13;;;;;;;4.53;2.77;;;;;;;21.19;54.67;98555.66;6870210;28;20206;-82
2021/08/04 05:26:35;;;;;;;2.80;2.30;;;;;;;20.79;55.99;98554.91;6852803;28;20230;-83
2021/08/04 05:29:58;;;;;;;3.00;2.77;;;;;;;21.17;55.01;98572.69;6850042;28;20232;-83
2021/08/04 05:33:19;;;;;;;3.50;2.73;;;;;;;21.40;54.84;98583.84;6875033;28;20201;-83
2021/08/04 05:36:41;;;;;;;3.77;2.40;;;;;;;21.49;54.48;98568.44;6874636;28;20237;-83
2021/08/04 05:40:03;;;;;;;2.80;2.50;;;;;;;21.29;54.88;98574.81;6875050;28;20694;-82
2021/08/04 05:43:24;;;;;;;5.47;2.43;;;;;;;21.18;54.55;98559.50;6874055;28;20208;-82
2021/08/04 05:46:47;;;;;;;2.33;2.13;;;;;;;21.40;53.89;98567.38;6866779;28;20202;-84
2021/08/04 05:50:10;;;;;;;2.80;2.30;;;;;;;21.71;52.77;98560.72;6848831;28;20237;-82
2021/08/04 05:53:32;;;;;;;6.50;2.30;;;;;;;21.72;52.16;98560.41;6850150;28;20213;-82
2021/08/04 05:56:53;;;;;;;2.90;2.60;;;;;;;21.87;52.79;98560.34;6849792;29;20521;-82
2021/08/04 06:00:15;;;;;;;2.80;2.60;;;;;;;21.81;52.20;98525.78;6849591;29;20222;-82
2021/08/04 06:03:38;;;;;;;3.67;2.40;;;;;;;22.39;51.73;98546.78;6850183;29;20572;-83
2021/08/04 06:07:00;;;;;;;2.93;2.33;;;;;;;21.50;51.86;98561.84;6849910;28;20218;-83
2021/08/04 06:10:21;;;;;;;2.50;2.30;;;;;;;22.63;49.85;98544.13;6848681;29;20252;-82
2021/08/04 06:13:43;;;;;;;2.60;2.37;;;;;;;23.25;48.10;98579.84;6849590;29;20235;-83
2021/08/04 06:17:05;;;;;;;4.07;2.50;;;;;;;23.22;46.71;98575.75;6849813;29;20221;-85
2021/08/04 06:20:28;;;;;;;2.90;2.40;;;;;;;23.55;47.25;98579.47;6862101;28;20228;-84
2021/08/04 06:23:49;;;;;;;2.63;2.43;;;;;;;23.77;45.64;98555.78;6874593;28;20294;-84
2021/08/04 06:27:12;;;;;;;2.60;1.93;;;;;;;23.53;44.45;98565.19;6876556;28;20664;-82
2021/08/04 06:30:33;;;;;;;2.40;2.20;;;;;;;23.69;45.58;98572.97;6875346;28;20229;-83
2021/08/04 06:33:55;;;;;;;2.60;2.40;;;;;;;23.63;45.34;98545.78;6876360;28;20543;-83
2021/08/04 06:37:18;;;;;;;5.33;2.53;;;;;;;24.21;44.17;98563.72;6876174;28;20204;-83
2021/08/04 06:40:40;;;;;;;4.63;2.40;;;;;;;24.60;43.14;98586.31;6876072;28;20662;-82
2021/08/04 06:44:01;;;;;;;2.40;2.20;;;;;;;24.63;43.42;98582.91;6876827;28;20249;-84
2021/08/04 06:47:23;;;;;;;4.27;2.17;;;;;;;24.05;45.22;98581.59;6876818;28;20212;-82
2021/08/04 06:50:45;;;;;;;5.03;2.40;;;;;;;24.71;43.88;98593.28;6876373;28;20234;-82
2021/08/04 06:54:09;;;;;;;3.50;2.40;;;;;;;24.63;43.43;98599.47;6878663;28;20236;-83
2021/08/04 06:57:32;;;;;;;2.87;1.97;;;;;;;24.61;42.32;98576.91;6878688;28;20215;-83
2021/08/04 07:00:53;;;;;;;2.50;2.30;;;;;;;24.54;42.99;98580.00;6854357;29;20229;-83
2021/08/04 07:04:15;;;;;;;2.40;2.20;;;;;;;24.77;42.44;98587.38;6855440;29;20256;-82
2021/08/04 07:07:37;;;;;;;2.47;2.27;;;;;;;24.51;43.45;98579.78;6855927;29;20235;-83
2021/08/04 07:11:00;;;;;;;3.00;2.33;;;;;;;23.53;45.25;98587.19;6855889;29;20230;-83
2021/08/04 07:14:22;;;;;;;2.40;2.20;;;;;;;23.79;43.12;98575.56;6854912;29;20226;-83
2021/08/04 07:17:46;;;;;;;3.63;2.40;;;;;;;23.90;42.63;98601.09;6855569;29;20210;-83
2021/08/04 07:21:08;;;;;;;2.20;2.00;;;;;;;23.99;42.41;98597.38;6856681;28;20202;-82
2021/08/04 07:24:30;;;;;;;3.10;2.30;;;;;;;23.95;42.79;98599.06;6862627;28;20228;-83
2021/08/04 07:27:53;;;;;;;2.23;2.03;;;;;;;23.30;44.36;98588.84;6847217;29;20218;-83
2021/08/04 07:31:14;;;;;;;2.30;2.10;;;;;;;24.13;43.04;98584.50;6847296;28;20231;-83
2021/08/04 07:34:36;;;;;;;2.50;2.30;;;;;;;24.52;42.35;98568.47;6874633;28;20698;-83
2021/08/04 07:37:58;;;;;;;2.43;2.10;;;;;;;24.20;42.72;98568.41;6853574;28;20199;-83
2021/08/04 07:41:19;;;;;;;2.40;2.20;;;;;;;24.44;42.53;98582.94;6845887;29;20224;-83
2021/08/04 07:44:42;;;;;;;2.60;2.40;;;;;;;24.82;42.20;98594.72;6845347;29;20247;-84
2021/08/04 07:48:05;;;;;;;2.60;2.40;;;;;;;25.25;41.31;98597.00;6844057;29;20224;-85
2021/08/04 07:51:26;;;;;;;2.27;2.07;;;;;;;24.70;39.20;98570.41;6839399;29;20212;-84
2021/08/04 07:54:49;;;;;;;3.00;2.17;;;;;;;24.34;41.54;98583.09;6839011;29;20225;-84
2021/08/04 07:58:11;;;;;;;2.10;2.00;;;;;;;24.12;39.72;98591.13;6842106;29;20698;-86
2021/08/04 08:01:35;;;;;;;2.27;2.03;;;;;;;23.77;40.00;98577.00;6841250;29;20691;-86
2021/08/04 08:04:57;;;;;;;2.67;2.13;;;;;;;23.45;40.25;98577.69;6841440;28;20238;-86
2021/08/04 08:08:22;;;;;;;2.53;2.33;;;;;;;23.07;41.55;98559.34;6843126;29;20215;-87
2021/08/04 08:11:43;;;;;;;2.50;2.23;;;;;;;23.96;39.93;98567.66;6844125;29;20233;-86
2021/08/04 08:15:06;;;;;;;2.50;2.30;;;;;;;24.38;39.03;98577.78;6841039;29;20243;-86
2021/08/04 08:18:31;;;;;;;2.23;2.03;;;;;;;25.71;37.75;98572.09;6843955;28;20202;-86
2021/08/04 08:21:54;;;;;;;3.03;2.50;;;;;;;25.32;39.01;98549.69;6843476;29;20205;-86
2021/08/04 08:25:17;;;;;;;2.30;2.10;;;;;;;24.06;39.48;98574.97;6850443;28;20229;-88
2021/08/04 08:28:39;;;;;;;2.13;2.00;;;;;;;24.52;39.25;98567.63;6868700;28;20229;-86
2021/08/04 08:32:01;;;;;;;2.60;2.40;;;;;;;24.95;39.25;98567.19;6868375;28;20241;-85
2021/08/04 08:35:24;;;;;;;2.37;2.20;;;;;;;25.06;37.57;98565.06;6871525;28;20435;-86
2021/08/04 08:38:45;;;;;;;5.93;2.40;;;;;;;24.85;38.80;98575.66;6868649;28;20215;-86
2021/08/04 08:42:07;;;;;;;2.03;1.93;;;;;;;24.63;40.14;98585.69;6865323;28;20575;-86
2021/08/04 08:45:29;;;;;;;2.87;2.03;;;;;;;23.55;41.69;98585.00;6865346;28;20721;-86
2021/08/04 08:48:51;;;;;;;2.20;2.10;;;;;;;24.51;40.07;98564.06;6861572;28;20237;-86
2021/08/04 08:52:14;;;;;;;2.50;2.30;;;;;;;24.94;39.57;98581.28;6865056;28;20672;-86
2021/08/04 08:55:36;;;;;;;2.77;2.20;;;;;;;24.60;40.03;98591.81;6868521;28;20224;-86
2021/08/04 08:58:58;;;;;;;2.50;2.30;;;;;;;25.37;39.79;98577.19;6862507;28;20695;-86
2021/08/04 09:02:20;;;;;;;2.53;2.20;;;;;;;25.84;37.33;98576.78;6860915;28;20205;-87
2021/08/04 09:05:51;;;;;;;2.40;2.20;;;;;;;24.59;38.44;98568.91;6861652;28;20219;-86
2021/08/04 09:09:22;;;;;;;2.47;2.27;;;;;;;25.14;40.08;98570.69;6868478;28;20683;-86
2021/08/04 09:12:46;;;;;;;2.77;2.20;;;;;;;24.76;38.65;98538.03;6868667;28;20647;-86
2021/08/04 09:16:10;;;;;;;3.77;2.23;;;;;;;25.29;38.20;98537.31;6869813;28;20223;-86
2021/08/04 09:19:33;;;;;;;2.40;2.20;;;;;;;26.32;38.11;98551.06;6864801;28;20213;-86
2021/08/04 09:23:00;;;;;;;2.20;2.00;;;;;;;26.95;36.57;98548.16;6863212;28;20204;-87
2021/08/04 09:26:24;;;;;;;3.00;1.90;;;;;;;27.30;35.66;98536.94;6865421;28;20354;-86
2021/08/04 09:29:57;;;;;;;2.57;2.10;;;;;;;25.57;35.79;98536.19;6864193;28;20242;-87
2021/08/04 09:33:25;;;;;;;2.53;2.33;;;;;;;26.00;37.27;98525.59;6868995;28;20275;-85
2021/08/04 09:36:51;;;;;;;2.40;2.20;;;;;;;25.78;38.24;98504.22;6869027;28;20209;-86
2021/08/04 09:40:15;;;;;;;2.27;2.10;;;;;;;25.61;37.02;98517.06;6866664;28;20315;-86
2021/08/04 09:47:10;;;;;;;2.80;2.40;;;;;;;25.36;37.92;98523.91;6905904;23;20711;-81
2021/08/04 09:50:50;;;;;;;2.87;2.30;;;;;;;25.68;39.01;98522.97;6860543;28;20231;-78
2021/08/04 09:54:13;;;;;;;2.50;2.03;;;;;;;26.36;36.47;98504.28;6856211;28;20247;-78
2021/08/04 09:57:39;;;;;;;2.80;2.23;;;;;;;27.08;35.58;98516.78;6834739;28;20258;-78
2021/08/04 10:01:02;;;;;;;2.27;2.10;;;;;;;26.77;35.86;98515.97;6833067;28;20220;-79
2021/08/04 10:04:25;;;;;;;2.00;1.80;;;;;;;27.82;34.34;98505.53;6834260;28;20727;-78
2021/08/04 10:08:01;;;;;;;2.10;2.00;;;;;;;27.79;35.27;98519.22;6834145;28;20226;-78
2021/08/04 10:11:23;;;;;;;2.27;2.07;;;;;;;25.62;37.27;98516.75;6833756;29;20376;-78
2021/08/04 10:14:45;;;;;;;2.60;2.20;;;;;;;24.54;39.43;98508.31;6833330;28;20237;-79
2021/08/04 10:18:08;;;;;;;2.50;2.30;;;;;;;25.53;39.99;98507.56;6833253;28;20710;-78
2021/08/04 10:21:32;;;;;;;2.90;2.60;;;;;;;25.88;38.54;98512.28;6833135;28;20217;-79
2021/08/04 10:24:54;;;;;;;5.73;2.10;;;;;;;25.34;38.92;98506.84;6833204;28;20232;-79
2021/08/04 10:28:16;;;;;;;2.37;1.83;;;;;;;25.59;38.79;98511.03;6832690;28;20218;-79
2021/08/04 10:31:40;;;;;;;2.20;1.73;;;;;;;24.85;39.83;98492.91;6838132;28;20234;-79
2021/08/04 10:35:02;;;;;;;2.30;2.07;;;;;;;25.05;39.09;98492.50;6838938;28;20605;-78
2021/08/04 10:38:27;;;;;;;2.40;2.20;;;;;;;26.15;37.22;98487.38;6837996;28;20687;-79
2021/08/04 10:42:04;;;;;;;2.70;2.07;;;;;;;26.18;37.72;98481.22;6838006;28;20194;-80
2021/08/04 10:45:32;;;;;;;2.40;2.20;;;;;;;25.12;38.71;98481.09;6837957;28;20245;-78
2021/08/04 10:48:54;;;;;;;2.10;1.90;;;;;;;26.71;37.48;98473.78;6837708;28;20252;-78
2021/08/04 10:52:16;;;;;;;3.40;2.10;;;;;;;25.41;38.56;98468.63;6838591;28;20235;-78
2021/08/04 10:55:55;;;;;;;2.50;2.30;;;;;;;24.71;40.35;98470.00;6837921;28;20233;-78
2021/08/04 10:59:23;;;;;;;2.53;2.30;;;;;;;23.23;43.82;98475.59;6837458;28;20194;-79
2021/08/04 11:02:45;;;;;;;2.33;2.00;;;;;;;25.72;40.54;98458.50;6838045;28;20655;-78
2021/08/04 11:06:09;;;;;;;2.10;1.90;;;;;;;25.34;39.52;98454.41;6838060;28;20229;-78
2021/08/04 11:09:37;;;;;;;2.03;1.90;;;;;;;26.44;38.00;98460.13;6836301;28;20232;-78
2021/08/04 11:13:00;;;;;;;2.73;2.13;;;;;;;27.53;35.85;98457.34;6837711;28;20546;-79
2021/08/04 11:16:28;;;;;;;2.27;2.07;;;;;;;27.33;37.12;98458.78;6838055;28;20734;-78
2021/08/04 11:20:09;;;;;;;2.60;1.90;;;;;;;27.24;35.41;98457.94;6836812;29;20208;-80
2021/08/04 11:23:49;;;;;;;2.50;1.83;;;;;;;28.06;34.46;98457.91;6837801;28;20210;-79
2021/08/04 11:27:11;;;;;;;1.97;1.73;;;;;;;27.73;34.00;98413.22;6837668;28;20194;-78
2021/08/04 11:30:35;;;;;;;1.93;1.83;;;;;;;28.42;33.84;98444.56;6837079;28;20234;-79
2021/08/04 11:34:02;;;;;;;1.97;1.70;;;;;;;28.36;33.58;98429.19;6837513;28;20210;-79
2021/08/04 11:37:25;;;;;;;2.33;2.13;;;;;;;27.35;34.83;98448.19;6837171;28;20230;-79
2021/08/04 11:40:47;;;;;;;2.40;2.10;;;;;;;25.30;37.88;98343.00;6835876;28;20239;-79
2021/08/04 11:44:14;;;;;;;2.53;2.33;;;;;;;27.00;36.68;98440.88;6836703;28;20773;-79
2021/08/04 11:47:37;;;;;;;2.50;2.10;;;;;;;27.03;36.08;98429.19;6836957;28;20848;-79
2021/08/04 11:50:59;;;;;;;2.43;2.23;;;;;;;27.26;35.14;98435.47;6836261;28;20235;-79
2021/08/04 11:54:36;;;;;;;2.17;1.90;;;;;;;27.74;35.86;98442.56;6836518;28;20272;-79
2021/08/04 11:57:58;;;;;;;2.17;2.03;;;;;;;27.38;35.66;98439.25;6836521;28;20283;-79
2021/08/04 12:01:20;;;;;;;2.70;2.20;;;;;;;27.32;35.76;98442.50;6836068;28;20206;-79
2021/08/04 12:04:44;;;;;;;2.50;2.30;;;;;;;26.64;37.06;98420.88;6835858;28;20700;-79
2021/08/04 12:08:06;;;;;;;2.30;2.10;;;;;;;28.00;35.18;98401.00;6837622;29;20210;-79
2021/08/04 12:11:41;;;;;;;4.30;2.03;;;;;;;28.15;35.28;98431.00;6841790;28;20719;-80
2021/08/04 12:15:04;;;;;;;1.80;1.70;;;;;;;28.09;33.89;98432.31;6841957;28;20663;-80
2021/08/04 12:18:25;;;;;;;2.73;1.77;;;;;;;27.58;35.10;98433.09;6841194;28;20218;-80
2021/08/04 12:21:48;;;;;;;1.70;1.60;;;;;;;28.03;35.29;98415.06;6844806;28;20227;-79
2021/08/04 12:25:16;;;;;;;1.90;1.80;;;;;;;28.32;34.32;98419.91;6844481;28;20269;-80
2021/08/04 12:28:38;;;;;;;1.93;1.83;;;;;;;28.79;33.33;98419.63;6844337;28;20201;-80
2021/08/04 12:32:11;;;;;;;3.30;2.17;;;;;;;28.38;34.24;98419.41;6842945;28;20223;-80
2021/08/04 12:35:40;;;;;;;1.90;1.70;;;;;;;28.09;34.81;98416.53;6841174;28;20234;-80
2021/08/04 12:39:03;;;;;;;2.70;1.73;;;;;;;28.09;34.80;98410.97;6844673;28;20194;-80
2021/08/04 12:42:25;;;;;;;1.70;1.60;;;;;;;28.17;33.97;98409.31;6845197;28;20712;-79
2021/08/04 12:45:49;;;;;;;1.90;1.80;;;;;;;28.53;34.07;98420.84;6843486;28;20243;-80
2021/08/04 12:49:16;;;;;;;1.77;1.67;;;;;;;27.91;35.18;98411.31;6842596;28;20206;-80
2021/08/04 12:52:38;;;;;;;3.10;1.90;;;;;;;27.71;35.30;98412.72;6843030;28;20260;-80
2021/08/04 12:56:03;;;;;;;1.90;1.80;;;;;;;26.90;35.87;98421.78;6843664;28;20639;-80
2021/08/04 12:59:40;;;;;;;2.00;1.90;;;;;;;25.09;39.19;98413.53;6844051;28;20209;-80
2021/08/04 13:03:03;;;;;;;2.00;1.80;;;;;;;26.08;37.13;98404.06;6844297;28;20284;-80
2021/08/04 13:06:48;;;;;;;2.07;1.93;;;;;;;27.56;35.63;98410.44;6845353;28;20222;-80
2021/08/04 13:10:11;;;;;;;2.13;2.03;;;;;;;27.63;34.12;98402.47;6844222;29;20237;-80
2021/08/04 13:14:01;;;;;;;1.63;1.53;;;;;;;27.93;35.20;98401.53;6861104;28;20205;-80
2021/08/04 13:17:23;;;;;;;2.17;2.07;;;;;;;28.07;33.82;98391.06;6862281;28;20216;-80
2021/08/04 13:20:45;;;;;;;2.03;1.93;;;;;;;27.47;36.49;98386.63;6864356;28;20668;-79
2021/08/04 13:24:07;;;;;;;3.00;2.00;;;;;;;27.97;34.17;98388.66;6859994;28;20277;-79
2021/08/04 13:27:30;;;;;;;1.67;1.57;;;;;;;28.43;33.99;98383.19;6860138;28;20221;-79
2021/08/04 13:30:59;;;;;;;2.20;2.00;;;;;;;28.48;34.54;98380.25;6861525;28;20276;-79
2021/08/04 13:34:20;;;;;;;2.07;1.80;;;;;;;28.25;34.81;98367.69;6861893;28;20241;-79
2021/08/04 13:37:42;;;;;;;2.50;2.30;;;;;;;27.97;33.85;98374.78;6860552;28;20202;-79
2021/08/04 13:41:04;;;;;;;2.20;1.90;;;;;;;28.11;34.18;98382.91;6860469;28;20205;-80
2021/08/04 13:44:26;;;;;;;1.73;1.63;;;;;;;27.88;34.71;98379.50;6860308;28;20257;-79
2021/08/04 13:47:50;;;;;;;2.80;2.00;;;;;;;26.85;35.35;98360.28;6860786;28;20677;-80
2021/08/04 13:51:12;;;;;;;2.27;1.90;;;;;;;27.01;36.93;98373.34;6858985;28;20225;-81
2021/08/04 13:54:33;;;;;;;2.97;1.90;;;;;;;26.61;36.58;98388.31;6859450;28;20240;-79
2021/08/04 13:57:55;;;;;;;2.10;2.00;;;;;;;26.33;37.41;98373.03;6859564;28;20217;-78
2021/08/04 14:01:16;;;;;;;2.07;1.90;;;;;;;27.02;36.50;98360.31;6862043;28;20240;-80
2021/08/04 14:04:41;;;;;;;2.53;2.20;;;;;;;27.22;35.92;98356.97;6863675;28;20255;-79
2021/08/04 14:08:02;;;;;;;2.57;2.37;;;;;;;27.00;35.95;98354.28;6865171;28;20209;-80
2021/08/04 14:11:24;;;;;;;1.80;1.70;;;;;;;27.41;35.09;98360.25;6864938;28;20232;-79
2021/08/04 14:14:46;;;;;;;2.37;2.17;;;;;;;27.03;36.11;98359.19;6864568;28;20238;-79
2021/08/04 14:18:07;;;;;;;1.97;1.80;;;;;;;27.15;37.32;98362.97;6864982;28;20213;-82
2021/08/04 14:21:30;;;;;;;2.17;1.97;;;;;;;27.36;36.63;98358.44;6865322;28;20255;-80
2021/08/04 14:24:52;;;;;;;2.47;1.87;;;;;;;26.32;37.58;98365.84;6864377;28;20237;-80
2021/08/04 14:28:13;;;;;;;3.37;1.90;;;;;;;26.46;38.50;98365.75;6864461;28;20607;-78
2021/08/04 14:31:35;;;;;;;2.13;1.97;;;;;;;26.36;37.17;98364.09;6865086;28;20314;-80
2021/08/04 14:34:57;;;;;;;2.33;2.13;;;;;;;26.17;38.69;98369.03;6865248;28;20231;-79
2021/08/04 14:38:20;;;;;;;2.83;1.80;;;;;;;26.31;38.71;98371.72;6863390;28;20221;-79
2021/08/04 14:41:41;;;;;;;2.60;2.00;;;;;;;26.18;39.05;98361.56;6864506;28;20209;-79
2021/08/04 14:45:04;;;;;;;2.90;1.80;;;;;;;26.78;37.64;98348.84;6864222;28;20244;-79
2021/08/04 14:48:26;;;;;;;3.17;1.97;;;;;;;26.47;37.30;98362.69;6863610;28;20603;-80
2021/08/04 14:51:48;;;;;;;2.30;2.10;;;;;;;25.92;38.04;98336.53;6863770;28;20276;-79
2021/08/04 14:55:11;;;;;;;1.83;1.73;;;;;;;26.21;39.06;98336.88;6863749;28;20323;-79
2021/08/04 14:58:32;;;;;;;1.83;1.70;;;;;;;26.57;38.49;98325.66;6862964;28;20209;-80
2021/08/04 15:01:54;;;;;;;2.27;2.07;;;;;;;26.99;38.47;98355.41;6862788;28;20676;-79
2021/08/04 15:05:16;;;;;;;2.07;1.97;;;;;;;26.87;38.23;98344.16;6862492;28;20227;-80
2021/08/04 15:08:37;;;;;;;2.40;2.20;;;;;;;26.32;38.01;98354.78;6862754;28;20208;-81
2021/08/04 15:12:01;;;;;;;2.07;1.80;;;;;;;26.23;37.58;98351.19;6863253;28;20228;-80
2021/08/04 15:15:22;;;;;;;2.07;1.97;;;;;;;26.30;37.98;98357.06;6861969;28;20228;-79
2021/08/04 15:18:44;;;;;;;2.77;2.20;;;;;;;26.25;38.99;98359.16;6863063;28;20217;-79
2021/08/04 15:22:06;;;;;;;1.80;1.70;;;;;;;26.17;38.92;98362.69;6863170;28;20225;-80
2021/08/04 15:25:27;;;;;;;2.30;2.10;;;;;;;26.73;36.92;98354.53;6862964;28;20232;-80
2021/08/04 15:28:51;;;;;;;2.10;1.97;;;;;;;26.84;37.91;98358.66;6862581;28;20270;-79
2021/08/04 15:32:13;;;;;;;3.20;1.93;;;;;;;26.92;37.26;98352.31;6861984;28;20232;-79
2021/08/04 15:35:37;;;;;;;4.30;2.03;;;;;;;26.95;38.12;98352.47;6863236;28;20335;-80
2021/08/04 15:38:59;;;;;;;2.30;2.10;;;;;;;26.80;37.27;98347.41;6862527;28;20216;-78
2021/08/04 15:42:20;;;;;;;2.00;1.90;;;;;;;26.95;39.29;98340.59;6847913;28;20205;-80
2021/08/04 15:45:44;;;;;;;2.27;2.17;;;;;;;27.12;39.53;98358.06;6840164;28;20618;-80
2021/08/04 15:49:07;;;;;;;2.20;2.10;;;;;;;27.04;40.38;98349.72;6864420;28;20204;-80
2021/08/04 15:52:29;;;;;;;2.50;2.30;;;;;;;27.11;39.84;98337.06;6871733;28;20239;-80
2021/08/04 15:55:50;;;;;;;2.23;1.90;;;;;;;27.02;40.90;98341.75;6871798;28;20319;-80
2021/08/04 15:59:12;;;;;;;2.17;2.03;;;;;;;27.16;40.41;98333.34;6871567;28;20220;-80
2021/08/04 16:02:35;;;;;;;1.97;1.77;;;;;;;26.89;40.86;98315.03;6871292;28;20216;-80
2021/08/04 16:05:56;;;;;;;2.47;2.27;;;;;;;27.10;39.84;98327.13;6872269;28;20220;-80
2021/08/04 16:09:18;;;;;;;2.67;2.10;;;;;;;27.04;40.15;98317.34;6870239;28;20205;-80
2021/08/04 16:12:40;;;;;;;2.47;2.17;;;;;;;27.04;39.29;98313.75;6871089;28;20238;-80
2021/08/04 16:16:03;;;;;;;2.40;2.20;;;;;;;26.77;40.21;98314.03;6872101;28;20267;-81
2021/08/04 16:19:28;;;;;;;2.83;1.70;;;;;;;26.90;40.39;98304.78;6871290;28;20209;-80
2021/08/04 16:22:50;;;;;;;2.60;2.40;;;;;;;27.14;41.01;98300.41;6870702;28;20201;-80
2021/08/04 16:26:12;;;;;;;2.07;1.93;;;;;;;26.93;42.48;98288.34;6871811;28;20702;-80
2021/08/04 16:29:33;;;;;;;2.27;2.07;;;;;;;27.12;41.65;98308.22;6863001;28;20256;-80
2021/08/04 16:32:55;;;;;;;2.57;2.10;;;;;;;26.29;43.58;98308.44;6863759;28;20236;-80
2021/08/04 16:36:18;;;;;;;2.00;1.90;;;;;;;25.82;44.35;98319.34;6860348;28;20248;-81
2021/08/04 16:39:39;;;;;;;2.20;1.80;;;;;;;25.04;44.59;98328.13;6863717;28;20208;-80
2021/08/04 16:43:01;;;;;;;2.00;1.80;;;;;;;24.96;44.64;98303.19;6865442;28;20217;-80
2021/08/04 16:46:23;;;;;;;2.13;1.70;;;;;;;25.05;44.79;98317.88;6866526;28;20277;-80
2021/08/04 16:49:44;;;;;;;3.20;2.03;;;;;;;25.27;43.77;98312.44;6865405;28;20219;-80
2021/08/04 16:53:07;;;;;;;2.30;2.10;;;;;;;25.33;43.78;98317.53;6866585;28;20231;-80
2021/08/04 16:56:30;;;;;;;2.20;2.00;;;;;;;25.26;43.59;98310.81;6865666;28;20245;-80
2021/08/04 16:59:58;;;;;;;2.80;2.20;;;;;;;24.91;43.93;98317.94;6851996;28;20240;-80
2021/08/04 17:03:20;;;;;;;2.00;1.80;;;;;;;24.93;43.36;98326.69;6839168;28;20305;-81
2021/08/04 17:06:41;;;;;;;2.40;2.20;;;;;;;24.86;43.83;98320.78;6839626;28;20264;-80
2021/08/04 17:10:05;;;;;;;2.10;1.73;;;;;;;24.95;43.37;98327.19;6837590;28;20677;-79
2021/08/04 17:13:27;;;;;;;1.90;1.80;;;;;;;24.81;43.16;98292.50;6838932;28;20245;-80
2021/08/04 17:16:49;;;;;;;2.57;1.90;;;;;;;25.22;42.60;98318.88;6839038;28;20581;-80
2021/08/04 17:20:14;;;;;;;2.43;2.00;;;;;;;25.05;43.42;98318.72;6837598;28;20206;-80
2021/08/04 17:23:35;;;;;;;2.30;2.10;;;;;;;24.95;43.70;98316.16;6839192;28;20188;-80
2021/08/04 17:26:58;;;;;;;2.30;2.10;;;;;;;24.68;44.39;98327.25;6837372;28;20586;-80
2021/08/04 17:30:20;;;;;;;1.80;1.70;;;;;;;24.81;44.61;98317.31;6840216;28;20211;-80
2021/08/04 17:33:42;;;;;;;2.73;2.20;;;;;;;24.47;44.49;98290.16;6840680;28;20245;-80
2021/08/04 17:37:04;;;;;;;2.57;2.20;;;;;;;24.70;44.80;98321.41;6840649;28;20212;-80
2021/08/04 17:40:26;;;;;;;3.07;2.10;;;;;;;24.67;44.87;98313.75;6840055;28;20309;-80
2021/08/04 17:43:49;;;;;;;2.20;2.10;;;;;;;24.81;44.01;98303.53;6839415;28;20222;-80
2021/08/04 17:47:10;;;;;;;2.97;2.40;;;;;;;24.73;44.79;98316.09;6839108;28;20216;-80
2021/08/04 17:50:32;;;;;;;2.17;2.03;;;;;;;24.43;45.49;98313.13;6836922;28;20218;-80
2021/08/04 17:53:55;;;;;;;2.47;2.27;;;;;;;24.61;45.01;98303.97;6839428;28;20231;-80
2021/08/04 17:57:16;;;;;;;2.57;2.10;;;;;;;24.59;46.05;98300.72;6841905;28;20683;-80
2021/08/04 18:00:39;;;;;;;2.40;2.20;;;;;;;24.83;45.97;98307.59;6839443;28;20210;-80
2021/08/04 18:04:01;;;;;;;2.03;1.83;;;;;;;25.06;45.79;98312.06;6840979;28;20899;-80
2021/08/04 18:07:22;;;;;;;2.27;2.17;;;;;;;24.78;46.01;98317.94;6839377;28;20213;-80
2021/08/04 18:10:44;;;;;;;2.60;2.37;;;;;;;24.79;45.79;98322.31;6839253;28;20221;-80
2021/08/04 18:14:06;;;;;;;2.50;2.30;;;;;;;24.70;46.34;98313.13;6838513;28;20242;-80
2021/08/04 18:17:29;;;;;;;3.30;2.07;;;;;;;24.89;46.11;98324.88;6838739;29;20214;-80
2021/08/04 18:20:50;;;;;;;2.27;2.07;;;;;;;24.70;46.92;98325.00;6838320;28;20211;-80
2021/08/04 18:24:12;;;;;;;2.20;2.00;;;;;;;24.62;47.58;98325.72;6906794;23;20240;-80
2021/08/04 18:27:34;;;;;;;2.57;2.20;;;;;;;24.43;48.21;98315.88;6880563;28;20212;-80
2021/08/04 18:30:55;;;;;;;2.13;2.03;;;;;;;24.39;48.15;98306.59;6881234;28;20199;-80
2021/08/04 18:34:19;;;;;;;2.93;2.23;;;;;;;24.44;48.50;98318.34;6888536;28;20230;-80
2021/08/04 18:37:40;;;;;;;2.10;2.00;;;;;;;24.51;48.00;98317.91;6846164;28;20213;-79
2021/08/04 18:41:03;;;;;;;2.33;2.13;;;;;;;24.45;47.36;98331.00;6863857;28;20209;-80
2021/08/04 18:44:24;;;;;;;2.30;2.10;;;;;;;24.49;47.29;98320.97;6868640;28;20233;-80
2021/08/04 18:47:46;;;;;;;2.67;2.43;;;;;;;24.54;46.71;98300.78;6869789;28;20212;-79
2021/08/04 18:51:09;;;;;;;3.00;2.30;;;;;;;24.43;47.35;98307.63;6870852;28;20207;-79
2021/08/04 18:54:32;;;;;;;2.87;2.50;;;;;;;24.55;47.95;98322.50;6872904;28;20616;-80
2021/08/04 18:57:53;;;;;;;3.83;2.47;;;;;;;24.47;47.28;98311.38;6873544;28;20217;-80
2021/08/04 19:01:15;;;;;;;3.00;2.47;;;;;;;24.05;48.57;98322.66;6855873;28;20206;-80
2021/08/04 19:04:37;;;;;;;3.23;2.17;;;;;;;24.11;48.41;98296.66;6845683;29;20745;-79
2021/08/04 19:08:01;;;;;;;3.13;2.57;;;;;;;24.53;48.30;98324.75;6846530;29;20208;-79
2021/08/04 19:11:22;;;;;;;5.67;2.47;;;;;;;24.43;48.99;98316.69;6846967;29;20235;-82
2021/08/04 19:14:45;;;;;;;4.30;2.40;;;;;;;24.36;49.90;98337.53;6843695;29;20233;-79
2021/08/04 19:18:07;;;;;;;2.97;2.33;;;;;;;24.04;50.72;98340.31;6847822;28;20218;-79
2021/08/04 19:21:29;;;;;;;2.60;2.40;;;;;;;22.63;55.03;98347.09;6873839;28;20202;-79
2021/08/04 19:24:52;;;;;;;2.83;2.57;;;;;;;23.46;53.38;98339.88;6873882;28;20238;-81
2021/08/04 19:28:13;;;;;;;2.50;2.30;;;;;;;23.80;52.92;98343.19;6864043;28;20209;-80
2021/08/04 19:31:35;;;;;;;2.63;2.43;;;;;;;23.93;51.11;98345.19;6860174;28;20215;-80